sensor_id;sensor_type;location;lat;lon;timestamp;P1;durP1;ratioP1;P2;durP2;ratioP2
23745;SDS011;12053;48.878;9.632;2023-02-07T00:01:22;16.90;;;10.07;;
23745;SDS011;12053;48.878;9.632;2023-02-07T00:03:49;22.67;;;10.85;;
23745;SDS011;12053;48.878;9.632;2023-02-07T00:06:18;16.25;;;10.95;;
23745;SDS011;12053;48.878;9.632;2023-02-07T00:08:46;20.98;;;10.00;;
23745;SDS011;12053;48.878;9.632;2023-02-07T00:11:14;12.82;;;7.97;;
23745;SDS011;12053;48.878;9.632;2023-02-07T00:13:42;15.27;;;9.18;;
23745;SDS011;12053;48.878;9.632;2023-02-07T00:16:10;20.45;;;11.38;;
23745;SDS011;12053;48.878;9.632;2023-02-07T00:18:38;18.75;;;11.45;;
23745;SDS011;12053;48.878;9.632;2023-02-07T00:21:06;18.95;;;11.20;;
23745;SDS011;12053;48.878;9.632;2023-02-07T00:23:33;21.73;;;12.68;;
23745;SDS011;12053;48.878;9.632;2023-02-07T00:26:02;18.98;;;11.77;;
23745;SDS011;12053;48.878;9.632;2023-02-07T00:28:29;19.52;;;11.50;;
23745;SDS011;12053;48.878;9.632;2023-02-07T00:31:13;21.17;;;12.00;;
23745;SDS011;12053;48.878;9.632;2023-02-07T00:33:42;15.18;;;9.52;;
23745;SDS011;12053;48.878;9.632;2023-02-07T00:36:12;23.58;;;13.85;;
23745;SDS011;12053;48.878;9.632;2023-02-07T00:38:39;22.00;;;12.68;;
23745;SDS011;12053;48.878;9.632;2023-02-07T00:41:07;25.35;;;13.88;;
23745;SDS011;12053;48.878;9.632;2023-02-07T00:43:34;23.38;;;14.65;;
23745;SDS011;12053;48.878;9.632;2023-02-07T00:46:02;25.63;;;15.95;;
23745;SDS011;12053;48.878;9.632;2023-02-07T00:48:31;27.48;;;14.52;;
23745;SDS011;12053;48.878;9.632;2023-02-07T00:50:58;16.58;;;10.27;;
23745;SDS011;12053;48.878;9.632;2023-02-07T00:53:26;16.40;;;9.70;;
23745;SDS011;12053;48.878;9.632;2023-02-07T00:55:54;21.77;;;11.25;;
23745;SDS011;12053;48.878;9.632;2023-02-07T00:58:21;20.92;;;12.45;;
23745;SDS011;12053;48.878;9.632;2023-02-07T01:00:49;18.40;;;11.45;;
23745;SDS011;12053;48.878;9.632;2023-02-07T01:03:16;18.25;;;10.70;;
23745;SDS011;12053;48.878;9.632;2023-02-07T01:05:44;25.15;;;14.70;;
23745;SDS011;12053;48.878;9.632;2023-02-07T01:08:11;21.70;;;12.05;;
23745;SDS011;12053;48.878;9.632;2023-02-07T01:10:39;25.00;;;13.80;;
23745;SDS011;12053;48.878;9.632;2023-02-07T01:13:06;24.15;;;14.05;;
23745;SDS011;12053;48.878;9.632;2023-02-07T01:15:37;21.38;;;13.00;;
23745;SDS011;12053;48.878;9.632;2023-02-07T01:18:05;23.52;;;14.25;;
23745;SDS011;12053;48.878;9.632;2023-02-07T01:20:33;26.02;;;15.25;;
23745;SDS011;12053;48.878;9.632;2023-02-07T01:23:01;24.95;;;14.70;;
23745;SDS011;12053;48.878;9.632;2023-02-07T01:25:28;27.73;;;12.80;;
23745;SDS011;12053;48.878;9.632;2023-02-07T01:27:55;19.77;;;10.90;;
23745;SDS011;12053;48.878;9.632;2023-02-07T01:30:22;17.92;;;11.48;;
23745;SDS011;12053;48.878;9.632;2023-02-07T01:32:50;22.40;;;13.77;;
23745;SDS011;12053;48.878;9.632;2023-02-07T01:35:17;17.42;;;11.15;;
23745;SDS011;12053;48.878;9.632;2023-02-07T01:37:44;22.23;;;12.98;;
23745;SDS011;12053;48.878;9.632;2023-02-07T01:40:11;19.40;;;11.82;;
23745;SDS011;12053;48.878;9.632;2023-02-07T01:42:39;20.73;;;11.95;;
23745;SDS011;12053;48.878;9.632;2023-02-07T01:47:34;20.70;;;11.73;;
23745;SDS011;12053;48.878;9.632;2023-02-07T01:50:03;18.55;;;11.20;;
23745;SDS011;12053;48.878;9.632;2023-02-07T01:52:32;17.33;;;11.32;;
23745;SDS011;12053;48.878;9.632;2023-02-07T01:55:02;23.58;;;12.70;;
23745;SDS011;12053;48.878;9.632;2023-02-07T01:57:30;19.40;;;11.02;;
23745;SDS011;12053;48.878;9.632;2023-02-07T01:59:57;22.58;;;12.85;;
23745;SDS011;12053;48.878;9.632;2023-02-07T02:02:27;19.65;;;12.25;;
23745;SDS011;12053;48.878;9.632;2023-02-07T02:04:54;22.00;;;12.50;;
23745;SDS011;12053;48.878;9.632;2023-02-07T02:07:22;23.85;;;12.20;;
23745;SDS011;12053;48.878;9.632;2023-02-07T02:09:50;21.42;;;13.00;;
23745;SDS011;12053;48.878;9.632;2023-02-07T02:15:02;25.38;;;14.52;;
23745;SDS011;12053;48.878;9.632;2023-02-07T02:17:38;21.75;;;12.27;;
23745;SDS011;12053;48.878;9.632;2023-02-07T02:22:56;30.15;;;17.08;;
23745;SDS011;12053;48.878;9.632;2023-02-07T02:33:19;22.02;;;13.07;;
23745;SDS011;12053;48.878;9.632;2023-02-07T02:41:23;17.90;;;10.57;;
23745;SDS011;12053;48.878;9.632;2023-02-07T02:43:53;23.48;;;13.55;;
23745;SDS011;12053;48.878;9.632;2023-02-07T02:46:27;23.50;;;13.07;;
23745;SDS011;12053;48.878;9.632;2023-02-07T02:48:54;28.70;;;15.52;;
23745;SDS011;12053;48.878;9.632;2023-02-07T02:51:22;26.52;;;16.00;;
23745;SDS011;12053;48.878;9.632;2023-02-07T02:53:53;24.20;;;15.00;;
23745;SDS011;12053;48.878;9.632;2023-02-07T02:59:25;28.25;;;15.43;;
23745;SDS011;12053;48.878;9.632;2023-02-07T03:10:01;23.33;;;12.75;;
23745;SDS011;12053;48.878;9.632;2023-02-07T03:12:38;28.85;;;17.17;;
23745;SDS011;12053;48.878;9.632;2023-02-07T03:15:12;20.10;;;12.57;;
23745;SDS011;12053;48.878;9.632;2023-02-07T03:18:01;18.98;;;11.18;;
23745;SDS011;12053;48.878;9.632;2023-02-07T03:21:05;16.27;;;10.20;;
23745;SDS011;12053;48.878;9.632;2023-02-07T03:23:26;25.25;;;14.18;;
23745;SDS011;12053;48.878;9.632;2023-02-07T03:29:23;27.20;;;14.25;;
23745;SDS011;12053;48.878;9.632;2023-02-07T03:31:54;25.20;;;15.00;;
23745;SDS011;12053;48.878;9.632;2023-02-07T03:34:31;17.13;;;10.52;;
23745;SDS011;12053;48.878;9.632;2023-02-07T03:39:46;22.23;;;14.05;;
23745;SDS011;12053;48.878;9.632;2023-02-07T03:44:53;26.50;;;16.63;;
23745;SDS011;12053;48.878;9.632;2023-02-07T03:47:21;20.65;;;13.32;;
23745;SDS011;12053;48.878;9.632;2023-02-07T03:49:48;18.85;;;10.25;;
23745;SDS011;12053;48.878;9.632;2023-02-07T03:52:15;27.17;;;16.33;;
23745;SDS011;12053;48.878;9.632;2023-02-07T03:54:42;26.10;;;13.18;;
23745;SDS011;12053;48.878;9.632;2023-02-07T03:57:10;18.83;;;10.23;;
23745;SDS011;12053;48.878;9.632;2023-02-07T03:59:37;19.48;;;12.60;;
23745;SDS011;12053;48.878;9.632;2023-02-07T04:02:05;22.40;;;14.43;;
23745;SDS011;12053;48.878;9.632;2023-02-07T04:04:32;17.80;;;8.95;;
23745;SDS011;12053;48.878;9.632;2023-02-07T04:06:59;19.88;;;12.90;;
23745;SDS011;12053;48.878;9.632;2023-02-07T04:09:26;22.17;;;13.65;;
23745;SDS011;12053;48.878;9.632;2023-02-07T04:11:53;23.00;;;14.05;;
23745;SDS011;12053;48.878;9.632;2023-02-07T04:14:21;20.88;;;13.70;;
23745;SDS011;12053;48.878;9.632;2023-02-07T04:16:48;16.33;;;10.82;;
23745;SDS011;12053;48.878;9.632;2023-02-07T04:19:15;17.23;;;10.73;;
23745;SDS011;12053;48.878;9.632;2023-02-07T04:21:43;18.75;;;11.02;;
23745;SDS011;12053;48.878;9.632;2023-02-07T04:24:10;19.08;;;11.32;;
23745;SDS011;12053;48.878;9.632;2023-02-07T04:26:37;20.33;;;11.48;;
23745;SDS011;12053;48.878;9.632;2023-02-07T04:29:05;19.40;;;11.25;;
23745;SDS011;12053;48.878;9.632;2023-02-07T04:31:32;22.70;;;11.50;;
23745;SDS011;12053;48.878;9.632;2023-02-07T04:33:59;13.90;;;7.90;;
23745;SDS011;12053;48.878;9.632;2023-02-07T04:36:26;20.20;;;10.65;;
23745;SDS011;12053;48.878;9.632;2023-02-07T04:38:55;19.00;;;10.00;;
23745;SDS011;12053;48.878;9.632;2023-02-07T04:41:22;16.63;;;9.30;;
23745;SDS011;12053;48.878;9.632;2023-02-07T04:43:49;17.23;;;10.43;;
23745;SDS011;12053;48.878;9.632;2023-02-07T04:46:17;17.98;;;10.90;;
23745;SDS011;12053;48.878;9.632;2023-02-07T04:48:44;18.42;;;10.25;;
23745;SDS011;12053;48.878;9.632;2023-02-07T04:51:13;13.63;;;9.10;;
23745;SDS011;12053;48.878;9.632;2023-02-07T04:53:41;17.25;;;9.95;;
23745;SDS011;12053;48.878;9.632;2023-02-07T04:56:08;18.98;;;10.40;;
23745;SDS011;12053;48.878;9.632;2023-02-07T04:58:35;13.90;;;9.20;;
23745;SDS011;12053;48.878;9.632;2023-02-07T05:01:02;16.65;;;10.02;;
23745;SDS011;12053;48.878;9.632;2023-02-07T05:03:30;15.88;;;9.05;;
23745;SDS011;12053;48.878;9.632;2023-02-07T05:05:57;18.58;;;9.57;;
23745;SDS011;12053;48.878;9.632;2023-02-07T05:08:24;18.35;;;8.10;;
23745;SDS011;12053;48.878;9.632;2023-02-07T05:10:52;18.65;;;10.77;;
23745;SDS011;12053;48.878;9.632;2023-02-07T05:13:19;21.00;;;11.02;;
23745;SDS011;12053;48.878;9.632;2023-02-07T05:15:47;15.68;;;9.55;;
23745;SDS011;12053;48.878;9.632;2023-02-07T05:18:14;16.20;;;10.05;;
23745;SDS011;12053;48.878;9.632;2023-02-07T05:20:42;15.38;;;9.25;;
23745;SDS011;12053;48.878;9.632;2023-02-07T05:23:09;18.35;;;8.68;;
23745;SDS011;12053;48.878;9.632;2023-02-07T05:25:37;14.93;;;8.15;;
23745;SDS011;12053;48.878;9.632;2023-02-07T05:28:05;14.85;;;8.57;;
23745;SDS011;12053;48.878;9.632;2023-02-07T05:30:32;14.38;;;9.77;;
23745;SDS011;12053;48.878;9.632;2023-02-07T05:32:59;14.55;;;8.75;;
23745;SDS011;12053;48.878;9.632;2023-02-07T05:37:57;16.67;;;9.40;;
23745;SDS011;12053;48.878;9.632;2023-02-07T05:40:24;10.50;;;6.88;;
23745;SDS011;12053;48.878;9.632;2023-02-07T05:42:51;14.23;;;9.27;;
23745;SDS011;12053;48.878;9.632;2023-02-07T05:45:19;12.77;;;8.32;;
23745;SDS011;12053;48.878;9.632;2023-02-07T05:47:46;12.85;;;8.00;;
23745;SDS011;12053;48.878;9.632;2023-02-07T05:50:14;16.90;;;6.75;;
23745;SDS011;12053;48.878;9.632;2023-02-07T05:52:41;13.80;;;8.27;;
23745;SDS011;12053;48.878;9.632;2023-02-07T05:55:09;9.27;;;6.82;;
23745;SDS011;12053;48.878;9.632;2023-02-07T05:57:39;11.20;;;6.72;;
23745;SDS011;12053;48.878;9.632;2023-02-07T06:00:08;9.55;;;6.15;;
23745;SDS011;12053;48.878;9.632;2023-02-07T06:02:38;14.30;;;8.98;;
23745;SDS011;12053;48.878;9.632;2023-02-07T06:05:06;14.65;;;7.88;;
23745;SDS011;12053;48.878;9.632;2023-02-07T06:07:33;10.98;;;7.25;;
23745;SDS011;12053;48.878;9.632;2023-02-07T06:10:00;14.20;;;8.02;;
23745;SDS011;12053;48.878;9.632;2023-02-07T06:12:28;20.65;;;9.70;;
23745;SDS011;12053;48.878;9.632;2023-02-07T06:14:55;18.70;;;9.40;;
23745;SDS011;12053;48.878;9.632;2023-02-07T06:17:22;18.23;;;9.80;;
23745;SDS011;12053;48.878;9.632;2023-02-07T06:19:50;17.92;;;9.75;;
23745;SDS011;12053;48.878;9.632;2023-02-07T06:22:18;14.73;;;8.85;;
23745;SDS011;12053;48.878;9.632;2023-02-07T06:24:46;15.25;;;8.70;;
23745;SDS011;12053;48.878;9.632;2023-02-07T06:27:13;14.20;;;7.90;;
23745;SDS011;12053;48.878;9.632;2023-02-07T06:29:40;9.27;;;6.03;;
23745;SDS011;12053;48.878;9.632;2023-02-07T06:32:07;12.57;;;7.43;;
23745;SDS011;12053;48.878;9.632;2023-02-07T06:34:35;11.95;;;7.72;;
23745;SDS011;12053;48.878;9.632;2023-02-07T06:37:04;13.55;;;7.68;;
23745;SDS011;12053;48.878;9.632;2023-02-07T06:39:49;13.38;;;7.57;;
23745;SDS011;12053;48.878;9.632;2023-02-07T06:42:17;13.93;;;7.90;;
23745;SDS011;12053;48.878;9.632;2023-02-07T06:44:44;14.25;;;9.30;;
23745;SDS011;12053;48.878;9.632;2023-02-07T06:47:11;15.55;;;8.15;;
23745;SDS011;12053;48.878;9.632;2023-02-07T06:49:38;11.75;;;7.03;;
23745;SDS011;12053;48.878;9.632;2023-02-07T06:52:06;15.20;;;7.95;;
23745;SDS011;12053;48.878;9.632;2023-02-07T06:54:33;14.52;;;8.02;;
23745;SDS011;12053;48.878;9.632;2023-02-07T06:57:00;15.52;;;9.30;;
23745;SDS011;12053;48.878;9.632;2023-02-07T06:59:27;16.00;;;8.68;;
23745;SDS011;12053;48.878;9.632;2023-02-07T07:01:55;13.13;;;7.85;;
23745;SDS011;12053;48.878;9.632;2023-02-07T07:04:22;13.18;;;8.85;;
23745;SDS011;12053;48.878;9.632;2023-02-07T07:06:49;12.82;;;9.10;;
23745;SDS011;12053;48.878;9.632;2023-02-07T07:09:16;13.63;;;7.97;;
23745;SDS011;12053;48.878;9.632;2023-02-07T07:11:44;16.98;;;11.02;;
23745;SDS011;12053;48.878;9.632;2023-02-07T07:14:11;18.10;;;10.75;;
23745;SDS011;12053;48.878;9.632;2023-02-07T07:16:39;19.08;;;11.30;;
23745;SDS011;12053;48.878;9.632;2023-02-07T07:19:06;16.13;;;9.50;;
23745;SDS011;12053;48.878;9.632;2023-02-07T07:21:34;11.38;;;7.57;;
23745;SDS011;12053;48.878;9.632;2023-02-07T07:24:01;14.30;;;8.65;;
23745;SDS011;12053;48.878;9.632;2023-02-07T07:26:28;11.85;;;6.28;;
23745;SDS011;12053;48.878;9.632;2023-02-07T07:29:13;9.82;;;7.15;;
23745;SDS011;12053;48.878;9.632;2023-02-07T07:31:40;13.70;;;8.80;;
23745;SDS011;12053;48.878;9.632;2023-02-07T07:34:07;26.15;;;11.30;;
23745;SDS011;12053;48.878;9.632;2023-02-07T07:36:35;26.73;;;12.43;;
23745;SDS011;12053;48.878;9.632;2023-02-07T07:39:02;12.32;;;8.05;;
23745;SDS011;12053;48.878;9.632;2023-02-07T07:41:29;18.73;;;9.18;;
23745;SDS011;12053;48.878;9.632;2023-02-07T07:43:56;14.00;;;7.65;;
23745;SDS011;12053;48.878;9.632;2023-02-07T07:46:24;14.40;;;8.57;;
23745;SDS011;12053;48.878;9.632;2023-02-07T07:48:51;15.10;;;8.98;;
23745;SDS011;12053;48.878;9.632;2023-02-07T07:51:18;14.63;;;9.73;;
23745;SDS011;12053;48.878;9.632;2023-02-07T07:53:45;14.43;;;9.10;;
23745;SDS011;12053;48.878;9.632;2023-02-07T07:56:13;11.57;;;8.35;;
23745;SDS011;12053;48.878;9.632;2023-02-07T07:58:40;14.02;;;10.05;;
23745;SDS011;12053;48.878;9.632;2023-02-07T08:01:07;17.80;;;10.30;;
23745;SDS011;12053;48.878;9.632;2023-02-07T08:03:34;11.15;;;7.05;;
23745;SDS011;12053;48.878;9.632;2023-02-07T08:06:02;14.45;;;9.25;;
23745;SDS011;12053;48.878;9.632;2023-02-07T08:08:29;14.07;;;8.82;;
23745;SDS011;12053;48.878;9.632;2023-02-07T08:11:04;15.52;;;9.50;;
23745;SDS011;12053;48.878;9.632;2023-02-07T08:13:31;12.55;;;8.13;;
23745;SDS011;12053;48.878;9.632;2023-02-07T08:15:59;17.23;;;7.90;;
23745;SDS011;12053;48.878;9.632;2023-02-07T08:18:26;20.77;;;8.20;;
23745;SDS011;12053;48.878;9.632;2023-02-07T08:20:54;12.40;;;7.88;;
23745;SDS011;12053;48.878;9.632;2023-02-07T08:23:21;12.35;;;8.75;;
23745;SDS011;12053;48.878;9.632;2023-02-07T08:25:49;11.52;;;6.18;;
23745;SDS011;12053;48.878;9.632;2023-02-07T08:28:16;8.70;;;4.50;;
23745;SDS011;12053;48.878;9.632;2023-02-07T08:30:44;12.90;;;8.65;;
23745;SDS011;12053;48.878;9.632;2023-02-07T08:33:15;14.45;;;8.45;;
23745;SDS011;12053;48.878;9.632;2023-02-07T08:35:42;10.95;;;7.20;;
23745;SDS011;12053;48.878;9.632;2023-02-07T08:38:10;14.73;;;10.40;;
23745;SDS011;12053;48.878;9.632;2023-02-07T08:40:37;13.25;;;8.90;;
23745;SDS011;12053;48.878;9.632;2023-02-07T08:43:05;13.35;;;8.65;;
23745;SDS011;12053;48.878;9.632;2023-02-07T08:45:41;13.07;;;9.35;;
23745;SDS011;12053;48.878;9.632;2023-02-07T08:48:08;8.75;;;5.95;;
23745;SDS011;12053;48.878;9.632;2023-02-07T08:50:36;14.00;;;9.30;;
23745;SDS011;12053;48.878;9.632;2023-02-07T08:53:03;14.20;;;7.75;;
23745;SDS011;12053;48.878;9.632;2023-02-07T08:55:31;14.80;;;9.90;;
23745;SDS011;12053;48.878;9.632;2023-02-07T08:57:58;15.45;;;9.02;;
23745;SDS011;12053;48.878;9.632;2023-02-07T09:00:25;16.63;;;9.73;;
23745;SDS011;12053;48.878;9.632;2023-02-07T09:02:52;16.10;;;8.70;;
23745;SDS011;12053;48.878;9.632;2023-02-07T09:05:19;18.65;;;11.50;;
23745;SDS011;12053;48.878;9.632;2023-02-07T09:07:46;16.70;;;10.45;;
23745;SDS011;12053;48.878;9.632;2023-02-07T09:10:14;13.77;;;9.45;;
23745;SDS011;12053;48.878;9.632;2023-02-07T09:12:41;16.00;;;10.20;;
23745;SDS011;12053;48.878;9.632;2023-02-07T09:15:08;15.23;;;9.45;;
23745;SDS011;12053;48.878;9.632;2023-02-07T09:17:35;10.48;;;7.70;;
23745;SDS011;12053;48.878;9.632;2023-02-07T09:20:03;11.32;;;7.50;;
23745;SDS011;12053;48.878;9.632;2023-02-07T09:22:30;11.45;;;8.20;;
23745;SDS011;12053;48.878;9.632;2023-02-07T09:25:17;13.65;;;9.57;;
23745;SDS011;12053;48.878;9.632;2023-02-07T09:27:44;16.60;;;9.95;;
23745;SDS011;12053;48.878;9.632;2023-02-07T09:30:12;12.50;;;9.57;;
23745;SDS011;12053;48.878;9.632;2023-02-07T09:32:39;15.50;;;10.35;;
23745;SDS011;12053;48.878;9.632;2023-02-07T09:35:06;11.45;;;7.60;;
23745;SDS011;12053;48.878;9.632;2023-02-07T09:37:34;15.73;;;8.93;;
23745;SDS011;12053;48.878;9.632;2023-02-07T09:40:15;11.18;;;7.65;;
23745;SDS011;12053;48.878;9.632;2023-02-07T09:45:18;13.75;;;7.78;;
23745;SDS011;12053;48.878;9.632;2023-02-07T09:47:47;15.77;;;9.23;;
23745;SDS011;12053;48.878;9.632;2023-02-07T09:50:21;15.38;;;9.13;;
23745;SDS011;12053;48.878;9.632;2023-02-07T09:55:17;11.55;;;8.32;;
23745;SDS011;12053;48.878;9.632;2023-02-07T09:57:46;12.13;;;7.15;;
23745;SDS011;12053;48.878;9.632;2023-02-07T10:02:43;12.02;;;8.00;;
23745;SDS011;12053;48.878;9.632;2023-02-07T10:05:15;11.18;;;7.47;;
23745;SDS011;12053;48.878;9.632;2023-02-07T10:07:43;15.88;;;8.95;;
23745;SDS011;12053;48.878;9.632;2023-02-07T10:10:15;11.38;;;7.10;;
23745;SDS011;12053;48.878;9.632;2023-02-07T10:12:46;15.83;;;10.03;;
23745;SDS011;12053;48.878;9.632;2023-02-07T10:15:36;15.93;;;9.05;;
23745;SDS011;12053;48.878;9.632;2023-02-07T10:21:08;10.45;;;7.53;;
23745;SDS011;12053;48.878;9.632;2023-02-07T10:26:15;11.98;;;7.68;;
23745;SDS011;12053;48.878;9.632;2023-02-07T10:31:21;12.57;;;8.13;;
23745;SDS011;12053;48.878;9.632;2023-02-07T10:33:54;11.23;;;7.47;;
23745;SDS011;12053;48.878;9.632;2023-02-07T10:36:23;11.50;;;8.02;;
23745;SDS011;12053;48.878;9.632;2023-02-07T10:38:55;13.10;;;9.02;;
23745;SDS011;12053;48.878;9.632;2023-02-07T10:41:35;11.13;;;7.38;;
23745;SDS011;12053;48.878;9.632;2023-02-07T10:44:13;12.40;;;7.75;;
23745;SDS011;12053;48.878;9.632;2023-02-07T10:46:42;15.82;;;7.15;;
23745;SDS011;12053;48.878;9.632;2023-02-07T10:49:21;11.65;;;7.07;;
23745;SDS011;12053;48.878;9.632;2023-02-07T10:51:51;14.73;;;7.57;;
23745;SDS011;12053;48.878;9.632;2023-02-07T10:54:19;11.38;;;6.38;;
23745;SDS011;12053;48.878;9.632;2023-02-07T10:56:50;12.23;;;8.20;;
23745;SDS011;12053;48.878;9.632;2023-02-07T11:01:54;11.82;;;7.43;;
23745;SDS011;12053;48.878;9.632;2023-02-07T11:04:34;9.35;;;6.55;;
23745;SDS011;12053;48.878;9.632;2023-02-07T11:07:03;10.15;;;7.18;;
23745;SDS011;12053;48.878;9.632;2023-02-07T11:09:31;11.20;;;7.75;;
23745;SDS011;12053;48.878;9.632;2023-02-07T11:12:12;13.68;;;8.00;;
23745;SDS011;12053;48.878;9.632;2023-02-07T11:14:40;12.95;;;6.38;;
23745;SDS011;12053;48.878;9.632;2023-02-07T11:17:18;8.88;;;6.57;;
23745;SDS011;12053;48.878;9.632;2023-02-07T11:19:46;9.88;;;6.10;;
23745;SDS011;12053;48.878;9.632;2023-02-07T11:22:20;10.57;;;7.10;;
23745;SDS011;12053;48.878;9.632;2023-02-07T11:24:50;9.20;;;5.68;;
23745;SDS011;12053;48.878;9.632;2023-02-07T11:27:19;11.38;;;7.00;;
23745;SDS011;12053;48.878;9.632;2023-02-07T11:29:50;9.98;;;6.50;;
23745;SDS011;12053;48.878;9.632;2023-02-07T11:32:18;8.35;;;6.18;;
23745;SDS011;12053;48.878;9.632;2023-02-07T11:34:50;7.05;;;5.15;;
23745;SDS011;12053;48.878;9.632;2023-02-07T11:37:23;11.07;;;7.22;;
23745;SDS011;12053;48.878;9.632;2023-02-07T11:42:19;9.10;;;6.68;;
23745;SDS011;12053;48.878;9.632;2023-02-07T11:44:48;9.38;;;5.60;;
23745;SDS011;12053;48.878;9.632;2023-02-07T11:47:25;11.13;;;6.03;;
23745;SDS011;12053;48.878;9.632;2023-02-07T11:49:57;10.80;;;6.57;;
23745;SDS011;12053;48.878;9.632;2023-02-07T11:52:26;9.37;;;5.50;;
23745;SDS011;12053;48.878;9.632;2023-02-07T11:54:55;7.45;;;5.72;;
23745;SDS011;12053;48.878;9.632;2023-02-07T11:57:26;8.93;;;6.15;;
23745;SDS011;12053;48.878;9.632;2023-02-07T12:02:32;8.70;;;6.32;;
23745;SDS011;12053;48.878;9.632;2023-02-07T12:08:00;8.25;;;5.38;;
23745;SDS011;12053;48.878;9.632;2023-02-07T12:10:31;7.45;;;5.38;;
23745;SDS011;12053;48.878;9.632;2023-02-07T12:12:59;8.82;;;6.05;;
23745;SDS011;12053;48.878;9.632;2023-02-07T12:15:36;7.10;;;5.07;;
23745;SDS011;12053;48.878;9.632;2023-02-07T12:23:08;8.52;;;6.18;;
23745;SDS011;12053;48.878;9.632;2023-02-07T12:26:01;8.00;;;6.20;;
23745;SDS011;12053;48.878;9.632;2023-02-07T12:28:33;10.55;;;5.97;;
23745;SDS011;12053;48.878;9.632;2023-02-07T12:31:05;11.05;;;6.43;;
23745;SDS011;12053;48.878;9.632;2023-02-07T12:33:49;10.52;;;6.43;;
23745;SDS011;12053;48.878;9.632;2023-02-07T12:36:20;9.45;;;5.15;;
23745;SDS011;12053;48.878;9.632;2023-02-07T12:39:04;10.35;;;6.93;;
23745;SDS011;12053;48.878;9.632;2023-02-07T12:41:37;10.35;;;6.88;;
23745;SDS011;12053;48.878;9.632;2023-02-07T12:46:51;8.52;;;5.72;;
23745;SDS011;12053;48.878;9.632;2023-02-07T12:57:14;9.05;;;5.95;;
23745;SDS011;12053;48.878;9.632;2023-02-07T13:10:17;10.82;;;6.03;;
23745;SDS011;12053;48.878;9.632;2023-02-07T13:16:07;7.60;;;5.15;;
23745;SDS011;12053;48.878;9.632;2023-02-07T13:18:36;11.18;;;6.05;;
23745;SDS011;12053;48.878;9.632;2023-02-07T13:21:15;8.77;;;6.38;;
23745;SDS011;12053;48.878;9.632;2023-02-07T13:23:45;7.47;;;5.05;;
23745;SDS011;12053;48.878;9.632;2023-02-07T13:26:14;6.63;;;3.47;;
23745;SDS011;12053;48.878;9.632;2023-02-07T13:31:17;8.38;;;5.40;;
23745;SDS011;12053;48.878;9.632;2023-02-07T13:33:46;9.75;;;5.93;;
23745;SDS011;12053;48.878;9.632;2023-02-07T13:36:21;6.38;;;4.47;;
23745;SDS011;12053;48.878;9.632;2023-02-07T13:39:06;9.30;;;5.22;;
23745;SDS011;12053;48.878;9.632;2023-02-07T13:46:48;9.63;;;5.50;;
23745;SDS011;12053;48.878;9.632;2023-02-07T13:49:28;9.32;;;6.53;;
23745;SDS011;12053;48.878;9.632;2023-02-07T13:57:19;7.78;;;5.05;;
23745;SDS011;12053;48.878;9.632;2023-02-07T14:02:39;9.43;;;5.28;;
23745;SDS011;12053;48.878;9.632;2023-02-07T14:05:08;6.97;;;5.35;;
23745;SDS011;12053;48.878;9.632;2023-02-07T14:07:36;7.65;;;5.38;;
23745;SDS011;12053;48.878;9.632;2023-02-07T14:10:04;8.07;;;5.40;;
23745;SDS011;12053;48.878;9.632;2023-02-07T14:12:34;9.40;;;5.88;;
23745;SDS011;12053;48.878;9.632;2023-02-07T14:18:02;7.10;;;4.47;;
23745;SDS011;12053;48.878;9.632;2023-02-07T14:23:14;8.93;;;6.00;;
23745;SDS011;12053;48.878;9.632;2023-02-07T14:25:42;7.90;;;5.32;;
23745;SDS011;12053;48.878;9.632;2023-02-07T14:30:38;9.70;;;6.10;;
23745;SDS011;12053;48.878;9.632;2023-02-07T14:33:46;9.55;;;5.70;;
23745;SDS011;12053;48.878;9.632;2023-02-07T14:41:13;7.60;;;4.90;;
23745;SDS011;12053;48.878;9.632;2023-02-07T14:46:12;7.07;;;4.85;;
23745;SDS011;12053;48.878;9.632;2023-02-07T14:48:45;7.07;;;4.95;;
23745;SDS011;12053;48.878;9.632;2023-02-07T14:51:17;7.38;;;4.72;;
23745;SDS011;12053;48.878;9.632;2023-02-07T14:53:45;6.57;;;4.63;;
23745;SDS011;12053;48.878;9.632;2023-02-07T14:56:30;7.50;;;4.90;;
23745;SDS011;12053;48.878;9.632;2023-02-07T14:59:03;7.18;;;4.43;;
23745;SDS011;12053;48.878;9.632;2023-02-07T15:01:31;6.53;;;4.30;;
23745;SDS011;12053;48.878;9.632;2023-02-07T15:04:02;5.45;;;3.83;;
23745;SDS011;12053;48.878;9.632;2023-02-07T16:07:39;12.77;;;7.35;;
23745;SDS011;12053;48.878;9.632;2023-02-07T16:13:17;13.63;;;8.63;;
23745;SDS011;12053;48.878;9.632;2023-02-07T16:15:52;10.57;;;6.90;;
23745;SDS011;12053;48.878;9.632;2023-02-07T16:18:40;10.70;;;6.47;;
23745;SDS011;12053;48.878;9.632;2023-02-07T16:23:41;10.40;;;6.25;;
23745;SDS011;12053;48.878;9.632;2023-02-07T16:26:08;10.02;;;6.43;;
23745;SDS011;12053;48.878;9.632;2023-02-07T16:28:35;11.10;;;6.28;;
23745;SDS011;12053;48.878;9.632;2023-02-07T16:31:02;9.48;;;5.93;;
23745;SDS011;12053;48.878;9.632;2023-02-07T16:33:31;12.57;;;6.43;;
23745;SDS011;12053;48.878;9.632;2023-02-07T16:35:58;13.07;;;5.82;;
23745;SDS011;12053;48.878;9.632;2023-02-07T16:38:25;9.35;;;5.75;;
23745;SDS011;12053;48.878;9.632;2023-02-07T16:40:52;12.25;;;6.10;;
23745;SDS011;12053;48.878;9.632;2023-02-07T16:43:28;11.85;;;6.82;;
23745;SDS011;12053;48.878;9.632;2023-02-07T16:45:58;11.93;;;7.32;;
23745;SDS011;12053;48.878;9.632;2023-02-07T16:48:25;12.30;;;7.20;;
23745;SDS011;12053;48.878;9.632;2023-02-07T16:50:52;12.25;;;7.18;;
23745;SDS011;12053;48.878;9.632;2023-02-07T16:53:19;12.10;;;6.75;;
23745;SDS011;12053;48.878;9.632;2023-02-07T16:55:47;10.68;;;7.28;;
23745;SDS011;12053;48.878;9.632;2023-02-07T16:58:24;10.85;;;6.97;;
23745;SDS011;12053;48.878;9.632;2023-02-07T17:00:52;12.75;;;6.68;;
23745;SDS011;12053;48.878;9.632;2023-02-07T17:03:19;11.30;;;7.07;;
23745;SDS011;12053;48.878;9.632;2023-02-07T17:05:47;11.10;;;7.25;;
23745;SDS011;12053;48.878;9.632;2023-02-07T17:08:15;10.70;;;7.95;;
23745;SDS011;12053;48.878;9.632;2023-02-07T17:10:47;11.95;;;7.90;;
23745;SDS011;12053;48.878;9.632;2023-02-07T17:13:15;13.50;;;8.23;;
23745;SDS011;12053;48.878;9.632;2023-02-07T17:15:44;14.25;;;8.15;;
23745;SDS011;12053;48.878;9.632;2023-02-07T17:18:11;17.17;;;9.02;;
23745;SDS011;12053;48.878;9.632;2023-02-07T17:20:39;16.92;;;9.35;;
23745;SDS011;12053;48.878;9.632;2023-02-07T17:23:06;13.35;;;8.70;;
23745;SDS011;12053;48.878;9.632;2023-02-07T17:25:33;13.25;;;8.60;;
23745;SDS011;12053;48.878;9.632;2023-02-07T17:28:01;13.23;;;9.23;;
23745;SDS011;12053;48.878;9.632;2023-02-07T17:30:29;11.60;;;6.60;;
23745;SDS011;12053;48.878;9.632;2023-02-07T17:32:58;13.98;;;8.90;;
23745;SDS011;12053;48.878;9.632;2023-02-07T17:35:25;14.35;;;8.60;;
23745;SDS011;12053;48.878;9.632;2023-02-07T17:37:52;14.13;;;8.95;;
23745;SDS011;12053;48.878;9.632;2023-02-07T17:40:22;15.85;;;10.23;;
23745;SDS011;12053;48.878;9.632;2023-02-07T17:42:51;15.73;;;8.77;;
23745;SDS011;12053;48.878;9.632;2023-02-07T17:45:18;17.50;;;10.00;;
23745;SDS011;12053;48.878;9.632;2023-02-07T17:47:45;14.93;;;8.88;;
23745;SDS011;12053;48.878;9.632;2023-02-07T17:50:16;14.85;;;9.75;;
23745;SDS011;12053;48.878;9.632;2023-02-07T17:52:44;15.47;;;9.53;;
23745;SDS011;12053;48.878;9.632;2023-02-07T17:55:12;14.95;;;8.68;;
23745;SDS011;12053;48.878;9.632;2023-02-07T17:57:39;17.98;;;8.82;;
23745;SDS011;12053;48.878;9.632;2023-02-07T18:00:12;15.35;;;9.00;;
23745;SDS011;12053;48.878;9.632;2023-02-07T18:02:40;16.45;;;9.30;;
23745;SDS011;12053;48.878;9.632;2023-02-07T18:05:08;16.90;;;10.10;;